Welcome to Des Moines Iowa Weather. I am an independent private personal weather station on the Northwest Side of Des Moines, Iowa. Just East of Windsor Heights and just West of Glendale . This site is also mobile friendly.

There are no active watches, warnings or advisories


Visit our other weather sites:

Historical Data

Weather Station Setup



Weather Underground History page Text

Daily Summary for September 10, 2017 Units:  English    Metric   Both
« Previous Day
Next Day »
Daily Weekly Monthly Yearly Custom
  High: Low: Average:
Temperature: 83.3 °F 61.9 °F 71.7 °F
Dew Point: 66.0 °F 57.0 °F 60 °F
Humidity: 84 % 49 % 68 %
Wind Speed: 6.0 mph 0.0 mph 0.7 mph
Wind Gust: 8.0 mph - -
Wind:- - SSE
Pressure: 30.26 in 30.14 in -
Precipitation: 0.00 in    
Historical Graphs
 
 
Tabular Data for September 10, 2017
Time Temperature Dew Point Pressure Wind Wind Speed Wind Gust Humidity Rainfall Rate (Hourly)
00:06 69.8 °F 61.0 °F 30.19 in Calm   3.0 mph 74 % 0.00 in
00:22 69.3 °F 61.0 °F 30.19 in Calm   1.0 mph 75 % 0.00 in
00:37 68.9 °F 61.0 °F 30.20 in Calm   2.0 mph 76 % 0.00 in
00:52 68.4 °F 61.0 °F 30.20 in Calm   4.0 mph 77 % 0.00 in
01:07 68.1 °F 61.0 °F 30.20 in Calm   2.0 mph 77 % 0.00 in
01:22 67.8 °F 60.0 °F 30.20 in Calm   2.0 mph 77 % 0.00 in
01:37 67.4 °F 60.0 °F 30.21 in Calm   1.0 mph 77 % 0.00 in
01:52 67.0 °F 60.0 °F 30.21 in Calm   2.0 mph 78 % 0.00 in
02:07 66.7 °F 59.0 °F 30.21 in Calm   1.0 mph 77 % 0.00 in
02:22 66.6 °F 59.0 °F 30.21 in Calm   3.0 mph 77 % 0.00 in
02:37 66.4 °F 59.0 °F 30.21 in Calm   2.0 mph 77 % 0.00 in
02:52 66.2 °F 58.0 °F 30.21 in Calm   2.0 mph 76 % 0.00 in
03:07 66.0 °F 58.0 °F 30.21 in Calm   3.0 mph 76 % 0.00 in
03:22 65.8 °F 58.0 °F 30.21 in Calm   3.0 mph 76 % 0.00 in
03:37 65.6 °F 58.0 °F 30.21 in Calm   3.0 mph 76 % 0.00 in
03:52 65.4 °F 58.0 °F 30.21 in Calm   2.0 mph 76 % 0.00 in
04:07 65.1 °F 58.0 °F 30.21 in Calm   3.0 mph 77 % 0.00 in
04:22 64.8 °F 57.0 °F 30.21 in Calm   3.0 mph 77 % 0.00 in
04:37 64.5 °F 58.0 °F 30.21 in South 1.0 mph 2.0 mph 78 % 0.00 in
04:52 64.3 °F 57.0 °F 30.21 in Calm   1.0 mph 78 % 0.00 in
05:07 64.0 °F 57.0 °F 30.21 in Calm   4.0 mph 79 % 0.00 in
05:22 63.8 °F 58.0 °F 30.22 in Calm   2.0 mph 80 % 0.00 in
05:37 63.7 °F 57.0 °F 30.22 in Calm   4.0 mph 80 % 0.00 in
05:52 63.5 °F 57.0 °F 30.22 in Calm   3.0 mph 80 % 0.00 in
06:07 63.2 °F 57.0 °F 30.22 in SW 1.0 mph 2.0 mph 81 % 0.00 in
06:22 62.9 °F 57.0 °F 30.22 in Calm   3.0 mph 81 % 0.00 in
06:37 62.7 °F 57.0 °F 30.23 in Calm   3.0 mph 82 % 0.00 in
06:52 62.5 °F 57.0 °F 30.23 in Calm   2.0 mph 82 % 0.00 in
07:07 62.3 °F 57.0 °F 30.23 in Calm   3.0 mph 83 % 0.00 in
07:22 62.1 °F 57.0 °F 30.24 in SW 2.0 mph 3.0 mph 83 % 0.00 in
07:37 61.9 °F 57.0 °F 30.24 in Calm   3.0 mph 84 % 0.00 in
07:52 62.0 °F 57.0 °F 30.24 in Calm   3.0 mph 84 % 0.00 in
08:07 62.1 °F 57.0 °F 30.25 in Calm   3.0 mph 84 % 0.00 in
08:23 62.4 °F 58.0 °F 30.25 in South 2.0 mph 3.0 mph 84 % 0.00 in
08:38 62.9 °F 58.0 °F 30.25 in South 1.0 mph 5.0 mph 83 % 0.00 in
08:53 63.4 °F 58.0 °F 30.25 in Calm   4.0 mph 83 % 0.00 in
09:08 64.0 °F 58.0 °F 30.25 in Calm   7.0 mph 82 % 0.00 in
09:23 64.6 °F 59.0 °F 30.26 in South 1.0 mph 4.0 mph 81 % 0.00 in
09:38 65.5 °F 59.0 °F 30.26 in SE 2.0 mph 4.0 mph 80 % 0.00 in
09:53 66.3 °F 59.0 °F 30.26 in Calm   4.0 mph 78 % 0.00 in
10:08 67.1 °F 60.0 °F 30.26 in SSW 2.0 mph 3.0 mph 78 % 0.00 in
10:23 68.0 °F 61.0 °F 30.25 in Calm   3.0 mph 77 % 0.00 in
10:38 69.0 °F 61.0 °F 30.25 in Calm   4.0 mph 76 % 0.00 in
10:53 70.4 °F 62.0 °F 30.24 in Calm   4.0 mph 74 % 0.00 in
11:08 72.1 °F 63.0 °F 30.24 in SSW 2.0 mph 4.0 mph 72 % 0.00 in
11:23 73.7 °F 63.0 °F 30.23 in SE 1.0 mph 3.0 mph 70 % 0.00 in
11:38 75.4 °F 64.0 °F 30.23 in SE 3.0 mph 3.0 mph 67 % 0.00 in
11:53 76.9 °F 64.0 °F 30.22 in Calm   5.0 mph 64 % 0.00 in
12:08 77.8 °F 64.0 °F 30.22 in SSE 2.0 mph 7.0 mph 62 % 0.00 in
12:23 77.8 °F 64.0 °F 30.21 in SSE 3.0 mph 6.0 mph 63 % 0.00 in
12:39 78.7 °F 64.0 °F 30.21 in SSE 3.0 mph 4.0 mph 61 % 0.00 in
12:53 79.8 °F 65.0 °F 30.20 in South 4.0 mph 4.0 mph 61 % 0.00 in
13:08 79.8 °F 65.0 °F 30.20 in Calm   7.0 mph 60 % 0.00 in
13:24 80.5 °F 66.0 °F 30.19 in East 2.0 mph 6.0 mph 61 % 0.00 in
13:38 81.5 °F 66.0 °F 30.18 in SSE 3.0 mph 6.0 mph 59 % 0.00 in
13:54 81.2 °F 65.0 °F 30.18 in Calm   7.0 mph 58 % 0.00 in
14:09 82.2 °F 66.0 °F 30.18 in South 3.0 mph 8.0 mph 58 % 0.00 in
14:24 82.6 °F 65.0 °F 30.18 in SSE 4.0 mph 7.0 mph 55 % 0.00 in
14:39 82.9 °F 66.0 °F 30.17 in Calm   4.0 mph 56 % 0.00 in
14:54 83.3 °F 64.0 °F 30.16 in Calm   7.0 mph 53 % 0.00 in
15:09 83.1 °F 65.0 °F 30.16 in SSE 5.0 mph 6.0 mph 54 % 0.00 in
15:24 81.5 °F 63.0 °F 30.16 in South 2.0 mph 8.0 mph 54 % 0.00 in
15:39 82.7 °F 64.0 °F 30.15 in SSE 6.0 mph 8.0 mph 53 % 0.00 in
15:54 82.1 °F 63.0 °F 30.15 in Calm   7.0 mph 53 % 0.00 in
16:09 82.0 °F 63.0 °F 30.14 in South 5.0 mph 8.0 mph 52 % 0.00 in
16:24 81.6 °F 62.0 °F 30.14 in Calm   5.0 mph 52 % 0.00 in
16:39 81.2 °F 62.0 °F 30.14 in Calm   7.0 mph 52 % 0.00 in
16:54 81.2 °F 62.0 °F 30.14 in Calm   5.0 mph 53 % 0.00 in
17:09 81.5 °F 61.0 °F 30.14 in South 1.0 mph 7.0 mph 50 % 0.00 in
17:24 81.5 °F 61.0 °F 30.14 in Calm   7.0 mph 50 % 0.00 in
17:39 81.4 °F 61.0 °F 30.14 in South 1.0 mph 8.0 mph 50 % 0.00 in
17:55 81.3 °F 61.0 °F 30.14 in Calm   3.0 mph 50 % 0.00 in
18:09 81.0 °F 60.0 °F 30.14 in SE 1.0 mph 3.0 mph 49 % 0.00 in
18:24 80.5 °F 61.0 °F 30.14 in Calm   1.0 mph 51 % 0.00 in
18:39 79.7 °F 60.0 °F 30.15 in Calm   6.0 mph 52 % 0.00 in
18:54 78.9 °F 60.0 °F 30.15 in Calm   5.0 mph 52 % 0.00 in
19:09 78.2 °F 60.0 °F 30.15 in Calm   3.0 mph 53 % 0.00 in
19:24 77.3 °F 59.0 °F 30.14 in Calm   5.0 mph 53 % 0.00 in
19:39 76.6 °F 59.0 °F 30.14 in Calm   3.0 mph 54 % 0.00 in
19:54 75.9 °F 58.0 °F 30.15 in Calm   2.0 mph 55 % 0.00 in
20:09 75.1 °F 58.0 °F 30.15 in Calm   1.0 mph 56 % 0.00 in
20:24 74.4 °F 59.0 °F 30.16 in Calm   3.0 mph 58 % 0.00 in
20:39 73.8 °F 58.0 °F 30.16 in Calm   5.0 mph 58 % 0.00 in
20:54 73.3 °F 57.0 °F 30.16 in Calm   2.0 mph 58 % 0.00 in
21:09 72.8 °F 57.0 °F 30.16 in SSE 1.0 mph 5.0 mph 59 % 0.00 in
21:24 72.3 °F 58.0 °F 30.16 in Calm   2.0 mph 60 % 0.00 in
21:39 71.9 °F 58.0 °F 30.16 in Calm   1.0 mph 61 % 0.00 in
21:54 71.3 °F 57.0 °F 30.16 in Calm   3.0 mph 62 % 0.00 in
22:09 70.8 °F 58.0 °F 30.17 in Calm   5.0 mph 64 % 0.00 in
22:28 70.4 °F 58.0 °F 30.18 in South 1.0 mph 2.0 mph 64 % 0.00 in
22:39 70.0 °F 58.0 °F 30.18 in Calm   3.0 mph 65 % 0.00 in
22:54 69.5 °F 58.0 °F 30.18 in Calm   3.0 mph 66 % 0.00 in
23:09 68.9 °F 57.0 °F 30.18 in Calm   4.0 mph 67 % 0.00 in
23:24 68.3 °F 57.0 °F 30.19 in South 1.0 mph 3.0 mph 68 % 0.00 in
23:39 67.8 °F 57.0 °F 30.19 in Calm   5.0 mph 69 % 0.00 in
23:54 67.3 °F 57.0 °F 30.19 in Calm   3.0 mph 70 % 0.00 in
Des Moines Weather and Climate
Compliments of Weather Underground - 3 mb

Script developed by  Jim McMurry - jmcmurry@mwt.net Adapted for the template by  Wim van der Kuil - Leuven-Template.eu

You find our weather info also at:

Weather Underground

Equipment we use:

Weather-station
Davis VP2 Plus

Weather-program
Davis Weatherlink.Com

Weather-server
iMac (Retina 4K, 21.5-inch, Late 2015)

Provider
Hostmonster.com

Davis VP2 Plus

Davis Weatherlink.Com

iMac (Retina 4K, 21.5-inch, Late 2015)

Hostmonster.com